createdAt,value
2017-06-04T00:01:41.145Z,70.30
2017-06-04T00:04:09.478Z,70.60
2017-06-04T00:06:37.727Z,70.50
2017-06-04T00:09:06.003Z,70.30
2017-06-04T00:11:34.306Z,70.90
2017-06-04T00:14:02.658Z,71.70
2017-06-04T00:16:30.893Z,72.20
2017-06-04T00:18:59.963Z,71.60
2017-06-04T00:21:30.317Z,71.60
2017-06-04T00:23:59.350Z,70.80
2017-06-04T00:26:27.672Z,70.70
2017-06-04T00:28:56.752Z,71.50
2017-06-04T00:31:24.985Z,71.30
2017-06-04T00:33:53.257Z,71.50
2017-06-04T00:36:21.569Z,70.50
2017-06-04T00:38:49.817Z,70.40
2017-06-04T00:41:18.091Z,70.20
2017-06-04T00:43:46.344Z,71.50
2017-06-04T00:46:14.582Z,72.00
2017-06-04T00:48:42.837Z,71.10
2017-06-04T00:51:11.082Z,71.10
2017-06-04T00:53:39.461Z,71.00
2017-06-04T00:56:07.742Z,70.70
2017-06-04T00:58:35.985Z,70.70
2017-06-04T01:01:04.997Z,71.10
2017-06-04T01:03:33.298Z,71.10
2017-06-04T01:06:01.561Z,71.00
2017-06-04T01:08:29.793Z,71.20
2017-06-04T01:10:58.813Z,71.70
2017-06-04T01:13:27.104Z,72.50
2017-06-04T01:15:55.422Z,71.90
2017-06-04T01:18:23.658Z,72.20
2017-06-04T01:20:51.933Z,72.10
2017-06-04T01:23:20.393Z,73.20
2017-06-04T01:25:49.418Z,71.80
2017-06-04T01:28:17.779Z,71.80
2017-06-04T01:30:46.025Z,72.00
2017-06-04T01:33:15.048Z,71.30
2017-06-04T01:35:43.336Z,71.20
2017-06-04T01:38:11.593Z,71.90
2017-06-04T01:40:39.858Z,72.50
2017-06-04T01:43:08.101Z,71.70
2017-06-04T01:45:37.142Z,71.80
2017-06-04T01:48:05.390Z,71.60
2017-06-04T01:50:33.727Z,71.90
2017-06-04T01:53:01.958Z,72.80
2017-06-04T01:55:30.252Z,71.80
2017-06-04T01:57:58.482Z,72.40
2017-06-04T02:00:27.504Z,72.40
2017-06-04T02:02:55.739Z,73.10
2017-06-04T02:05:24.061Z,71.30
2017-06-04T02:07:52.364Z,71.90
2017-06-04T02:10:20.621Z,71.90
2017-06-04T02:12:48.866Z,71.20
2017-06-04T02:15:17.306Z,70.40
2017-06-04T02:17:45.646Z,71.00
2017-06-04T02:20:13.927Z,70.80
2017-06-04T02:22:42.217Z,70.70
2017-06-04T02:25:10.441Z,71.20
2017-06-04T02:27:39.448Z,72.10
2017-06-04T02:30:07.746Z,71.90
2017-06-04T02:32:35.985Z,72.60
2017-06-04T02:35:05.114Z,74.40
2017-06-04T02:37:33.488Z,73.60
2017-06-04T02:40:02.586Z,73.30
2017-06-04T02:42:30.891Z,73.20
2017-06-04T02:44:59.237Z,73.90
2017-06-04T02:47:27.468Z,71.00
2017-06-04T02:49:56.616Z,72.50
2017-06-04T02:52:24.895Z,72.50
2017-06-04T02:54:53.129Z,73.30
2017-06-04T02:57:21.384Z,72.00
2017-06-04T02:59:49.617Z,72.20
2017-06-04T03:02:17.870Z,72.30
2017-06-04T03:04:46.109Z,70.70
2017-06-04T03:07:14.352Z,71.90
2017-06-04T03:09:42.585Z,72.40
2017-06-04T03:12:10.913Z,71.70
2017-06-04T03:14:39.151Z,73.10
2017-06-04T03:17:07.417Z,72.20
2017-06-04T03:19:35.734Z,71.40
2017-06-04T03:22:03.965Z,71.90
2017-06-04T03:24:32.229Z,71.80
2017-06-04T03:27:01.230Z,72.00
2017-06-04T03:29:29.544Z,71.90
2017-06-04T03:31:57.769Z,71.40
2017-06-04T03:34:26.799Z,71.90
2017-06-04T03:36:55.076Z,71.90
2017-06-04T03:39:23.338Z,71.50
2017-06-04T03:41:51.631Z,71.20
2017-06-04T03:44:19.898Z,71.30
2017-06-04T03:46:48.225Z,70.80
2017-06-04T03:49:16.554Z,70.30
2017-06-04T03:51:44.833Z,70.50
2017-06-04T03:54:13.110Z,71.30
2017-06-04T03:56:41.491Z,71.40
2017-06-04T03:59:09.722Z,71.10
2017-06-04T04:01:38.735Z,71.20
2017-06-04T04:04:06.980Z,71.00
2017-06-04T04:06:36.014Z,71.20
2017-06-04T04:09:04.258Z,71.60
2017-06-04T04:11:33.262Z,72.10
2017-06-04T04:14:01.574Z,72.00
2017-06-04T04:16:29.815Z,72.50
2017-06-04T04:18:58.129Z,72.90
2017-06-04T04:21:26.397Z,71.30
2017-06-04T04:23:54.661Z,71.00
2017-06-04T04:26:22.940Z,70.50
2017-06-04T04:28:51.246Z,70.90
2017-06-04T04:31:19.679Z,71.00
2017-06-04T04:33:48.653Z,70.20
2017-06-04T04:36:17.664Z,70.10
2017-06-04T04:38:45.972Z,70.10
2017-06-04T04:41:14.332Z,70.40
2017-06-04T04:43:42.565Z,70.60
2017-06-04T04:46:11.704Z,70.30
2017-06-04T04:48:40.014Z,70.30
2017-06-04T04:51:08.273Z,71.20
2017-06-04T04:53:36.619Z,70.90
2017-06-04T04:56:05.679Z,70.60
2017-06-04T04:58:33.934Z,70.60
2017-06-04T05:01:02.194Z,69.50
2017-06-04T05:03:30.556Z,70.30
2017-06-04T05:05:58.799Z,69.60
2017-06-04T05:08:27.809Z,68.80
2017-06-04T05:10:56.140Z,68.70
2017-06-04T05:13:24.480Z,68.70
2017-06-04T05:15:53.545Z,69.10
2017-06-04T05:18:21.855Z,68.90
2017-06-04T05:20:51.884Z,69.80
2017-06-04T05:23:20.118Z,69.90
2017-06-04T05:25:48.377Z,69.40
2017-06-04T05:28:17.376Z,69.30
2017-06-04T05:30:45.645Z,69.30
2017-06-04T05:33:14.647Z,69.80
2017-06-04T05:35:43.679Z,69.50
2017-06-04T05:38:11.954Z,69.40
2017-06-04T05:40:40.329Z,68.60
2017-06-04T05:43:08.702Z,68.70
2017-06-04T05:45:36.977Z,69.70
2017-06-04T05:48:05.306Z,70.00
2017-06-04T05:50:34.365Z,69.60
2017-06-04T05:53:02.616Z,69.60
2017-06-04T05:55:30.902Z,68.80
2017-06-04T05:57:59.276Z,69.10
2017-06-04T06:00:28.350Z,68.90
2017-06-04T06:02:56.658Z,69.40
2017-06-04T06:05:24.905Z,69.50
2017-06-04T06:07:53.146Z,70.00
2017-06-04T06:10:21.397Z,69.40
2017-06-04T06:12:49.630Z,69.20
2017-06-04T06:15:17.877Z,68.10
2017-06-04T06:17:46.886Z,70.20
2017-06-04T06:20:16.054Z,69.70
2017-06-04T06:22:44.262Z,69.70
2017-06-04T06:25:12.585Z,68.90
2017-06-04T06:27:40.838Z,69.70
2017-06-04T06:30:09.070Z,70.60
2017-06-04T06:32:38.077Z,69.50
2017-06-04T06:35:06.382Z,69.50
2017-06-04T06:37:34.633Z,69.90
2017-06-04T06:40:02.937Z,69.70
2017-06-04T06:42:31.206Z,69.20
2017-06-04T06:44:59.444Z,70.00
2017-06-04T06:47:28.526Z,71.10
2017-06-04T06:49:57.540Z,71.70
2017-06-04T06:52:25.844Z,70.90
2017-06-04T06:54:54.097Z,70.50
2017-06-04T06:57:22.341Z,70.10
2017-06-04T06:59:50.590Z,70.70
2017-06-04T07:02:18.830Z,69.00
2017-06-04T07:04:47.185Z,68.90
2017-06-04T07:07:15.392Z,68.20
2017-06-04T07:09:43.625Z,68.70
2017-06-04T07:12:12.643Z,71.70
2017-06-04T07:14:40.909Z,71.10
2017-06-04T07:17:09.161Z,69.00
2017-06-04T07:19:37.485Z,69.60
2017-06-04T07:22:05.747Z,70.80
2017-06-04T07:24:34.041Z,69.10
2017-06-04T07:27:02.311Z,69.40
2017-06-04T07:29:30.628Z,69.50
2017-06-04T07:31:58.854Z,67.50
2017-06-04T07:34:27.142Z,64.20
2017-06-04T07:36:55.476Z,60.80
2017-06-04T07:39:24.536Z,63.60
2017-06-04T07:41:52.773Z,63.60
2017-06-04T07:44:21.087Z,63.30
2017-06-04T07:46:49.466Z,63.80
2017-06-04T07:49:17.817Z,63.70
2017-06-04T07:51:46.055Z,63.30
2017-06-04T07:54:15.193Z,62.50
2017-06-04T07:56:43.488Z,62.50
2017-06-04T07:59:11.729Z,63.30
2017-06-04T08:01:40.055Z,61.00
2017-06-04T08:04:08.406Z,61.60
2017-06-04T08:06:36.659Z,61.30
2017-06-04T08:09:04.893Z,61.20
2017-06-04T08:11:33.146Z,61.40
2017-06-04T08:14:01.386Z,61.30
2017-06-04T08:16:29.662Z,60.30
2017-06-04T08:18:58.146Z,60.60
2017-06-04T08:21:26.529Z,59.40
2017-06-04T08:23:54.788Z,59.00
2017-06-04T08:26:23.027Z,59.10
2017-06-04T08:28:51.360Z,59.70
2017-06-04T08:31:19.589Z,59.30
2017-06-04T08:33:48.618Z,59.70
2017-06-04T08:36:16.866Z,59.10
2017-06-04T08:38:45.902Z,57.10
2017-06-04T08:41:14.161Z,57.00
2017-06-04T08:43:42.442Z,57.70
2017-06-04T08:46:10.721Z,56.90
2017-06-04T08:48:38.949Z,57.60
2017-06-04T08:51:08.006Z,55.50
2017-06-04T08:53:36.334Z,55.50
2017-06-04T08:56:05.354Z,55.20
2017-06-04T08:58:33.645Z,55.10
2017-06-04T09:01:01.898Z,55.40
2017-06-04T09:03:30.133Z,53.50
2017-06-04T09:05:59.277Z,51.70
2017-06-04T09:08:27.529Z,51.20
2017-06-04T09:10:55.862Z,48.70
2017-06-04T09:13:24.127Z,48.80
2017-06-04T09:15:52.363Z,49.20
2017-06-04T09:18:20.657Z,48.90
2017-06-04T09:20:48.889Z,47.10
2017-06-04T09:23:17.908Z,49.90
2017-06-04T09:25:46.144Z,49.80
2017-06-04T09:28:14.407Z,49.80
2017-06-04T09:30:42.687Z,48.70
2017-06-04T09:33:10.953Z,47.70
2017-06-04T09:35:39.181Z,47.30
2017-06-04T09:38:07.586Z,47.70
2017-06-04T09:40:35.953Z,47.40
2017-06-04T09:43:04.197Z,48.90
2017-06-04T09:45:33.333Z,50.40
2017-06-04T09:48:01.609Z,50.30
2017-06-04T09:50:29.945Z,50.80
2017-06-04T09:52:58.980Z,51.20
2017-06-04T09:55:27.255Z,51.10
2017-06-04T09:57:55.501Z,49.90
2017-06-04T10:00:23.738Z,46.90
2017-06-04T10:02:52.022Z,44.90
2017-06-04T10:05:20.269Z,43.00
2017-06-04T10:07:48.534Z,42.40
2017-06-04T10:10:16.811Z,43.40
2017-06-04T10:12:45.134Z,43.30
2017-06-04T10:15:14.273Z,42.20
2017-06-04T10:17:42.533Z,42.20
2017-06-04T10:20:10.886Z,41.70
2017-06-04T10:22:39.937Z,36.60
2017-06-04T10:25:08.184Z,36.60
2017-06-04T10:27:36.468Z,34.10
2017-06-04T10:30:04.712Z,35.80
2017-06-04T10:32:33.759Z,35.30
2017-06-04T10:35:01.992Z,35.30
2017-06-04T10:37:30.242Z,31.90
2017-06-04T10:39:59.270Z,26.90
2017-06-04T10:42:27.497Z,26.90
2017-06-04T10:44:55.828Z,26.70
2017-06-04T10:47:24.077Z,26.60
2017-06-04T10:49:53.085Z,26.60
2017-06-04T10:52:21.403Z,26.60
2017-06-04T10:54:49.764Z,26.10
2017-06-04T10:57:18.125Z,27.40
2017-06-04T10:59:46.420Z,27.80
2017-06-04T11:02:14.669Z,26.40
2017-06-04T11:04:42.968Z,25.30
2017-06-04T11:07:11.196Z,24.90
2017-06-04T11:09:40.329Z,24.10
2017-06-04T11:12:08.569Z,24.00
2017-06-04T11:14:37.593Z,21.70
2017-06-04T11:17:05.843Z,21.60
2017-06-04T11:19:34.845Z,24.00
2017-06-04T11:22:03.155Z,23.90
2017-06-04T11:24:31.419Z,24.20
2017-06-04T11:26:59.690Z,24.00
2017-06-04T11:29:27.960Z,23.20
2017-06-04T11:31:56.245Z,22.20
2017-06-04T11:34:24.564Z,21.00
2017-06-04T11:36:52.805Z,20.50
2017-06-04T11:39:21.081Z,20.10
2017-06-04T11:41:49.326Z,19.20
2017-06-04T11:44:17.637Z,18.70
2017-06-04T11:46:45.869Z,18.40
2017-06-04T11:49:14.181Z,17.90
2017-06-04T11:51:42.441Z,17.80
2017-06-04T11:54:10.719Z,18.10
2017-06-04T11:56:38.991Z,17.90
2017-06-04T11:59:07.221Z,18.40
2017-06-04T12:01:35.549Z,19.50
2017-06-04T12:04:03.949Z,20.30
2017-06-04T12:06:32.254Z,21.00
2017-06-04T12:09:00.709Z,21.50
2017-06-04T12:11:28.925Z,23.70
2017-06-04T12:13:57.953Z,24.80
2017-06-04T12:16:26.297Z,24.70
2017-06-04T12:18:54.522Z,25.40
2017-06-04T12:21:22.848Z,26.30
2017-06-04T12:23:51.851Z,27.60
2017-06-04T12:26:20.153Z,27.50
2017-06-04T12:28:48.492Z,28.80
2017-06-04T12:31:17.536Z,30.90
2017-06-04T12:33:45.825Z,30.90
2017-06-04T12:36:14.087Z,32.00
2017-06-04T12:38:42.355Z,32.50
2017-06-04T12:41:10.582Z,31.20
2017-06-04T12:43:39.597Z,31.50
2017-06-04T12:46:07.845Z,31.50
2017-06-04T12:48:36.988Z,32.10
2017-06-04T12:51:05.259Z,31.40
2017-06-04T12:53:33.501Z,32.80
2017-06-04T12:56:02.525Z,32.70
2017-06-04T12:58:30.764Z,32.70
2017-06-04T13:00:59.777Z,31.30
2017-06-04T13:03:28.118Z,31.10
2017-06-04T13:05:56.360Z,29.50
2017-06-04T13:08:24.597Z,28.80
2017-06-04T13:10:52.873Z,27.70
2017-06-04T13:13:21.137Z,27.90
2017-06-04T13:15:50.136Z,28.70
2017-06-04T13:18:18.389Z,28.60
2017-06-04T13:20:46.626Z,27.90
2017-06-04T13:23:14.896Z,28.90
2017-06-04T13:25:43.133Z,30.10
2017-06-04T13:28:12.192Z,32.10
2017-06-04T13:30:40.438Z,32.00
2017-06-04T13:33:08.661Z,31.90
2017-06-04T13:35:37.680Z,32.90
2017-06-04T13:38:05.977Z,32.80
2017-06-04T13:40:34.383Z,32.80
2017-06-04T13:43:03.532Z,33.50
2017-06-04T13:45:31.765Z,33.40
2017-06-04T13:48:00.001Z,34.30
2017-06-04T13:50:28.330Z,34.30
2017-06-04T13:52:56.659Z,34.80
2017-06-04T13:55:24.888Z,35.00
2017-06-04T13:57:53.969Z,35.30
2017-06-04T14:00:22.238Z,34.90
2017-06-04T14:02:50.627Z,35.20
2017-06-04T14:05:18.893Z,34.70
2017-06-04T14:07:47.229Z,35.10
2017-06-04T14:10:15.527Z,33.40
2017-06-04T14:12:43.758Z,33.60
2017-06-04T14:15:12.034Z,33.00
2017-06-04T14:17:40.266Z,33.10
2017-06-04T14:20:08.532Z,33.20
2017-06-04T14:22:36.794Z,34.60
2017-06-04T14:25:05.068Z,35.60
2017-06-04T14:27:33.306Z,34.10
2017-06-04T14:30:01.610Z,34.60
2017-06-04T14:32:29.844Z,34.10
2017-06-04T14:34:58.860Z,35.60
2017-06-04T14:37:27.110Z,35.50
2017-06-04T14:39:56.260Z,36.10
2017-06-04T14:42:24.528Z,36.10
2017-06-04T14:44:52.902Z,37.40
2017-06-04T14:47:21.190Z,38.80
2017-06-04T14:49:49.448Z,38.20
2017-06-04T14:52:17.697Z,38.10
2017-06-04T14:54:46.019Z,37.00
2017-06-04T14:57:14.269Z,36.50
2017-06-04T14:59:42.510Z,36.90
2017-06-04T15:02:11.546Z,37.40
2017-06-04T15:04:39.782Z,37.40
2017-06-04T15:07:08.260Z,36.60
2017-06-04T15:09:37.277Z,36.90
2017-06-04T15:12:05.517Z,36.90
2017-06-04T15:14:33.843Z,35.90
2017-06-04T15:17:02.084Z,34.30
2017-06-04T15:19:31.116Z,34.90
2017-06-04T15:21:59.384Z,34.90
2017-06-04T15:24:28.369Z,36.40
2017-06-04T15:26:56.624Z,36.20
2017-06-04T15:29:25.684Z,36.20
2017-06-04T15:31:53.933Z,36.20
2017-06-04T15:34:22.217Z,36.70
2017-06-04T15:36:50.479Z,37.20
2017-06-04T15:39:18.713Z,37.00
2017-06-04T15:41:47.729Z,37.80
2017-06-04T15:44:16.021Z,37.80
2017-06-04T15:46:44.375Z,37.80
2017-06-04T15:49:13.495Z,37.60
2017-06-04T15:51:41.724Z,37.60
2017-06-04T15:54:10.770Z,36.50
2017-06-04T15:56:39.086Z,36.50
2017-06-04T15:59:07.323Z,36.10
2017-06-04T16:01:35.689Z,36.80
2017-06-04T16:04:04.016Z,36.40
2017-06-04T16:06:32.290Z,36.70
2017-06-04T16:09:00.519Z,35.50
2017-06-04T16:11:28.757Z,35.30
2017-06-04T16:13:57.802Z,34.00
2017-06-04T16:16:26.041Z,33.90
2017-06-04T16:18:54.313Z,33.20
2017-06-04T16:21:22.558Z,32.40
2017-06-04T16:23:50.817Z,32.00
2017-06-04T16:26:19.314Z,32.10
2017-06-04T16:28:47.558Z,32.70
2017-06-04T16:31:15.923Z,32.90
2017-06-04T16:33:44.152Z,32.60
2017-06-04T16:36:13.298Z,31.60
2017-06-04T16:38:41.532Z,31.50
2017-06-04T16:41:10.337Z,30.60
2017-06-04T16:43:38.589Z,31.90
2017-06-04T16:46:07.596Z,31.90
2017-06-04T16:48:35.873Z,32.00
2017-06-04T16:51:04.186Z,32.30
2017-06-04T16:53:32.437Z,32.70
2017-06-04T16:56:00.756Z,31.70
2017-06-04T16:58:28.993Z,31.50
2017-06-04T17:00:57.249Z,32.10
2017-06-04T17:03:25.489Z,32.80
2017-06-04T17:05:53.787Z,32.30
2017-06-04T17:08:22.894Z,31.60
2017-06-04T17:10:51.230Z,31.60
2017-06-04T17:13:19.490Z,32.70
2017-06-04T17:15:47.722Z,31.70
2017-06-04T17:18:15.993Z,31.30
2017-06-04T17:20:44.229Z,31.30
2017-06-04T17:23:12.461Z,31.60
2017-06-04T17:25:40.714Z,32.80
2017-06-04T17:28:08.945Z,32.50
2017-06-04T17:30:37.234Z,31.60
2017-06-04T17:33:05.461Z,32.20
2017-06-04T17:35:33.704Z,32.50
2017-06-04T17:38:02.841Z,31.80
2017-06-04T17:40:31.070Z,31.50
2017-06-04T17:43:00.208Z,33.70
2017-06-04T17:45:28.448Z,33.40
2017-06-04T17:47:57.437Z,33.70
2017-06-04T17:50:26.579Z,33.80
2017-06-04T17:52:54.851Z,33.70
2017-06-04T17:55:23.115Z,33.80
2017-06-04T17:57:51.348Z,33.80
2017-06-04T18:00:20.552Z,33.80
2017-06-04T18:02:49.569Z,34.10
2017-06-04T18:05:17.813Z,34.10
2017-06-04T18:07:46.090Z,33.50
2017-06-04T18:10:14.423Z,34.40
2017-06-04T18:12:42.659Z,35.50
2017-06-04T18:15:11.786Z,37.60
2017-06-04T18:17:40.022Z,37.50
2017-06-04T18:20:09.097Z,40.60
2017-06-04T18:22:37.341Z,40.60
2017-06-04T18:25:05.585Z,42.10
2017-06-04T18:27:33.841Z,42.30
2017-06-04T18:30:02.875Z,42.90
2017-06-04T18:32:31.979Z,43.30
2017-06-04T18:35:00.209Z,43.10
2017-06-04T18:37:29.210Z,44.90
2017-06-04T18:39:57.460Z,44.90
2017-06-04T18:42:25.700Z,44.70
2017-06-04T18:44:54.061Z,45.10
2017-06-04T18:47:22.302Z,44.70
2017-06-04T18:49:51.388Z,45.10
2017-06-04T18:52:20.413Z,44.70
2017-06-04T18:54:48.654Z,45.10
2017-06-04T18:57:18.126Z,45.20
2017-06-04T18:59:46.368Z,45.20
2017-06-04T19:02:14.658Z,45.50
2017-06-04T19:04:42.908Z,45.90
2017-06-04T19:07:11.136Z,46.30
2017-06-04T19:09:39.501Z,46.30
2017-06-04T19:12:07.737Z,46.00
2017-06-04T19:14:35.971Z,45.60
2017-06-04T19:17:04.227Z,45.20
2017-06-04T19:19:32.455Z,45.40
2017-06-04T19:22:01.485Z,44.60
2017-06-04T19:24:29.754Z,44.60
2017-06-04T19:26:57.990Z,44.60
2017-06-04T19:29:27.126Z,43.80
2017-06-04T19:31:55.366Z,43.80
2017-06-04T19:34:24.397Z,43.60
2017-06-04T19:36:52.625Z,43.50
2017-06-04T19:39:21.631Z,44.30
2017-06-04T19:41:50.743Z,43.70
2017-06-04T19:44:19.034Z,43.70
2017-06-04T19:46:47.286Z,43.60
2017-06-04T19:49:15.560Z,43.70
2017-06-04T19:51:44.630Z,43.60
2017-06-04T19:54:12.998Z,43.60
2017-06-04T19:56:41.268Z,43.80
2017-06-04T19:59:09.613Z,44.30
2017-06-04T20:01:37.882Z,44.40
2017-06-04T20:04:06.117Z,45.00
2017-06-04T20:06:34.349Z,45.30
2017-06-04T20:09:02.597Z,45.90
2017-06-04T20:11:30.825Z,46.50
2017-06-04T20:13:59.177Z,46.20
2017-06-04T20:16:27.418Z,45.40
2017-06-04T20:18:55.755Z,45.10
2017-06-04T20:21:24.007Z,44.80
2017-06-04T20:23:52.259Z,45.20
2017-06-04T20:26:20.547Z,44.90
2017-06-04T20:28:48.858Z,44.80
2017-06-04T20:31:17.106Z,45.10
2017-06-04T20:33:45.366Z,44.40
2017-06-04T20:36:14.318Z,43.90
2017-06-04T20:38:43.643Z,44.30
2017-06-04T20:41:13.191Z,44.50
2017-06-04T20:43:42.014Z,44.90
2017-06-04T20:46:11.274Z,46.00
2017-06-04T20:48:40.202Z,46.10
2017-06-04T20:51:09.100Z,46.20
2017-06-04T20:53:38.893Z,47.10
2017-06-04T20:56:08.350Z,47.60
2017-06-04T20:58:38.103Z,47.60
2017-06-04T21:01:07.044Z,47.40
2017-06-04T21:03:35.295Z,47.30
2017-06-04T21:06:04.385Z,47.40
2017-06-04T21:08:33.453Z,48.10
2017-06-04T21:11:01.749Z,47.50
2017-06-04T21:13:29.989Z,47.90
2017-06-04T21:15:58.246Z,48.30
2017-06-04T21:18:26.554Z,48.40
2017-06-04T21:20:54.917Z,49.00
2017-06-04T21:23:23.290Z,49.40
2017-06-04T21:25:51.522Z,49.90
2017-06-04T21:28:20.585Z,50.30
2017-06-04T21:30:49.137Z,50.30
2017-06-04T21:33:17.429Z,50.50
2017-06-04T21:35:45.759Z,51.10
2017-06-04T21:38:14.898Z,50.50
2017-06-04T21:40:43.130Z,50.40
2017-06-04T21:43:12.253Z,51.00
2017-06-04T21:45:40.583Z,50.80
2017-06-04T21:48:08.861Z,51.10
2017-06-04T21:50:37.906Z,51.80
2017-06-04T21:53:06.146Z,51.00
2017-06-04T21:55:35.179Z,50.70
2017-06-04T21:58:03.418Z,50.60
2017-06-04T22:00:31.704Z,50.30
2017-06-04T22:02:59.947Z,50.50
2017-06-04T22:05:28.189Z,50.60
2017-06-04T22:07:57.079Z,50.70
2017-06-04T22:10:25.318Z,50.80
2017-06-04T22:12:53.594Z,50.80
2017-06-04T22:15:22.661Z,51.30
2017-06-04T22:17:50.904Z,50.30
2017-06-04T22:20:19.269Z,49.50
2017-06-04T22:22:47.546Z,49.70
2017-06-04T22:25:15.813Z,49.20
2017-06-04T22:27:44.141Z,49.40
2017-06-04T22:30:12.520Z,51.30
2017-06-04T22:32:41.540Z,51.30
2017-06-04T22:35:11.309Z,51.30
2017-06-04T22:37:39.873Z,51.80
2017-06-04T22:40:08.153Z,51.90
2017-06-04T22:42:36.461Z,51.70
2017-06-04T22:45:05.473Z,51.20
2017-06-04T22:47:33.784Z,51.50
2017-06-04T22:50:02.416Z,51.60
2017-06-04T22:52:30.726Z,51.70
2017-06-04T22:54:58.967Z,52.80
2017-06-04T22:57:28.120Z,53.10
2017-06-04T22:59:56.328Z,53.10
2017-06-04T23:02:24.639Z,53.30
2017-06-04T23:04:52.883Z,53.80
2017-06-04T23:07:21.128Z,53.60
2017-06-04T23:09:49.481Z,53.80
2017-06-04T23:12:17.716Z,53.40
2017-06-04T23:14:46.750Z,53.70
2017-06-04T23:17:14.997Z,53.10
2017-06-04T23:19:44.007Z,54.20
2017-06-04T23:22:12.310Z,54.20
2017-06-04T23:24:40.566Z,54.60
2017-06-04T23:27:08.823Z,54.90
2017-06-04T23:29:37.128Z,55.00
2017-06-04T23:32:05.363Z,55.30
2017-06-04T23:34:34.403Z,54.40
2017-06-04T23:37:02.846Z,54.40
2017-06-04T23:39:31.824Z,55.90
2017-06-04T23:42:00.953Z,55.20
2017-06-04T23:44:29.253Z,55.20
2017-06-04T23:46:57.525Z,54.90
2017-06-04T23:49:25.846Z,55.00
2017-06-04T23:51:54.841Z,54.90
2017-06-04T23:54:23.866Z,54.60
2017-06-04T23:56:52.108Z,54.50
2017-06-04T23:59:21.156Z,54.50
